createdAt,value
2019-02-09T00:01:00.449Z,17.73
2019-02-09T00:02:00.696Z,17.73
2019-02-09T00:03:01.140Z,17.73
2019-02-09T00:04:00.058Z,17.73
2019-02-09T00:04:59.825Z,17.72
2019-02-09T00:05:59.074Z,17.72
2019-02-09T00:06:59.224Z,17.71
2019-02-09T00:07:59.191Z,17.7
2019-02-09T00:08:59.799Z,17.7
2019-02-09T00:09:59.952Z,17.69
2019-02-09T00:10:59.976Z,17.7
2019-02-09T00:11:59.744Z,17.68
2019-02-09T00:12:59.491Z,17.68
2019-02-09T00:13:59.260Z,17.67
2019-02-09T00:14:59.060Z,17.68
2019-02-09T00:15:59.172Z,17.67
2019-02-09T00:16:59.027Z,17.67
2019-02-09T00:17:59.129Z,17.66
2019-02-09T00:18:59.803Z,17.65
2019-02-09T00:20:00.001Z,17.64
2019-02-09T00:20:59.168Z,17.64
2019-02-09T00:21:59.337Z,17.63
2019-02-09T00:22:59.433Z,17.62
2019-02-09T00:24:00.562Z,17.62
2019-02-09T00:24:59.586Z,17.62
2019-02-09T00:25:59.246Z,17.62
2019-02-09T00:26:59.299Z,17.61
2019-02-09T00:27:59.489Z,17.61
2019-02-09T00:28:59.213Z,17.6
2019-02-09T00:29:59.237Z,17.58
2019-02-09T00:30:59.143Z,17.58
2019-02-09T00:31:59.219Z,17.59
2019-02-09T00:32:59.586Z,17.57
2019-02-09T00:33:59.507Z,17.58
2019-02-09T00:34:59.117Z,17.57
2019-02-09T00:35:59.384Z,17.55
2019-02-09T00:36:59.803Z,17.55
2019-02-09T00:38:00.071Z,17.55
2019-02-09T00:38:59.369Z,17.55
2019-02-09T00:40:01.158Z,17.54
2019-02-09T00:40:59.437Z,17.54
2019-02-09T00:41:59.767Z,17.54
2019-02-09T00:43:03.777Z,17.54
2019-02-09T00:43:59.361Z,17.53
2019-02-09T00:44:59.234Z,17.54
2019-02-09T00:45:59.694Z,17.53
2019-02-09T00:46:59.607Z,17.53
2019-02-09T00:47:59.127Z,17.52
2019-02-09T00:48:59.406Z,17.53
2019-02-09T00:49:59.637Z,17.52
2019-02-09T00:50:59.976Z,17.52
2019-02-09T00:52:01.068Z,17.5
2019-02-09T00:52:59.644Z,17.49
2019-02-09T00:53:58.983Z,17.49
2019-02-09T00:55:01.010Z,17.49
2019-02-09T00:56:00.091Z,17.49
2019-02-09T00:57:00.126Z,17.48
2019-02-09T00:57:59.210Z,17.48
2019-02-09T00:58:59.606Z,17.48
2019-02-09T00:59:59.116Z,17.47
2019-02-09T01:00:59.273Z,17.46
2019-02-09T01:02:00.029Z,17.47
2019-02-09T01:02:59.376Z,17.46
2019-02-09T01:04:00.660Z,17.46
2019-02-09T01:04:59.261Z,17.46
2019-02-09T01:05:59.331Z,17.45
2019-02-09T01:06:59.201Z,17.45
2019-02-09T01:07:59.153Z,17.45
2019-02-09T01:08:59.544Z,17.45
2019-02-09T01:09:59.655Z,17.44
2019-02-09T01:10:59.466Z,17.44
2019-02-09T01:12:00.143Z,17.42
2019-02-09T01:12:59.411Z,17.42
2019-02-09T01:14:01.062Z,17.42
2019-02-09T01:14:59.443Z,17.42
2019-02-09T01:15:59.310Z,17.42
2019-02-09T01:16:59.715Z,17.41
2019-02-09T01:17:59.531Z,17.42
2019-02-09T01:18:59.629Z,17.41
2019-02-09T01:19:59.938Z,17.4
2019-02-09T01:20:59.795Z,17.4
2019-02-09T01:21:59.569Z,17.4
2019-02-09T01:22:59.244Z,17.4
2019-02-09T01:23:59.983Z,17.4
2019-02-09T01:24:59.759Z,17.38
2019-02-09T01:25:59.978Z,17.37
2019-02-09T01:26:59.053Z,17.38
2019-02-09T01:27:59.787Z,17.37
2019-02-09T01:28:59.804Z,17.37
2019-02-09T01:30:03.226Z,17.37
2019-02-09T01:30:59.494Z,17.36
2019-02-09T01:31:59.207Z,17.37
2019-02-09T01:32:59.319Z,17.36
2019-02-09T01:33:59.240Z,17.35
2019-02-09T01:34:59.503Z,17.35
2019-02-09T01:35:59.081Z,17.34
2019-02-09T01:36:59.437Z,17.33
2019-02-09T01:37:59.438Z,17.33
2019-02-09T01:38:59.166Z,17.33
2019-02-09T01:39:59.573Z,17.33
2019-02-09T01:41:01.183Z,17.33
2019-02-09T01:41:59.165Z,17.32
2019-02-09T01:42:59.265Z,17.32
2019-02-09T01:43:59.139Z,17.32
2019-02-09T01:44:59.698Z,17.3
2019-02-09T01:45:59.779Z,17.3
2019-02-09T01:46:59.153Z,17.31
2019-02-09T01:47:59.225Z,17.3
2019-02-09T01:48:59.929Z,17.29
2019-02-09T01:49:59.026Z,17.31
2019-02-09T01:50:59.255Z,17.29
2019-02-09T01:51:59.542Z,17.29
2019-02-09T01:53:01.027Z,17.29
2019-02-09T01:53:59.356Z,17.29
2019-02-09T01:54:58.988Z,17.29
2019-02-09T01:56:00.718Z,17.28
2019-02-09T01:56:59.890Z,17.29
2019-02-09T01:58:04.900Z,17.28
2019-02-09T01:58:59.087Z,17.27
2019-02-09T01:59:58.919Z,17.27
2019-02-09T02:00:59.436Z,17.26
2019-02-09T02:01:59.221Z,17.26
2019-02-09T02:02:59.668Z,17.25
2019-02-09T02:03:59.152Z,17.25
2019-02-09T02:04:59.650Z,17.26
2019-02-09T02:05:59.128Z,17.25
2019-02-09T02:06:59.206Z,17.25
2019-02-09T02:07:59.774Z,17.23
2019-02-09T02:08:59.052Z,17.23
2019-02-09T02:09:59.238Z,17.23
2019-02-09T02:10:59.373Z,17.23
2019-02-09T02:11:59.359Z,17.23
2019-02-09T02:13:00.196Z,17.23
2019-02-09T02:14:00.061Z,17.23
2019-02-09T02:14:59.204Z,17.22
2019-02-09T02:15:59.757Z,17.23
2019-02-09T02:16:59.198Z,17.21
2019-02-09T02:17:59.259Z,17.2
2019-02-09T02:18:59.284Z,17.2
2019-02-09T02:19:59.442Z,17.19
2019-02-09T02:20:59.249Z,17.21
2019-02-09T02:21:59.070Z,17.19
2019-02-09T02:22:59.269Z,17.18
2019-02-09T02:23:59.251Z,17.18
2019-02-09T02:24:59.447Z,17.17
2019-02-09T02:25:59.383Z,17.17
2019-02-09T02:26:59.256Z,17.17
2019-02-09T02:28:00.939Z,17.17
2019-02-09T02:28:59.305Z,17.17
2019-02-09T02:29:59.270Z,17.17
2019-02-09T02:30:59.143Z,17.16
2019-02-09T02:31:59.138Z,17.17
2019-02-09T02:32:59.325Z,17.16
2019-02-09T02:33:59.776Z,17.15
2019-02-09T02:34:59.210Z,17.15
2019-02-09T02:35:59.165Z,17.14
2019-02-09T02:37:00.960Z,17.13
2019-02-09T02:37:59.683Z,17.13
2019-02-09T02:38:59.703Z,17.13
2019-02-09T02:39:59.072Z,17.13
2019-02-09T02:40:59.405Z,17.13
2019-02-09T02:41:59.645Z,17.13
2019-02-09T02:42:59.185Z,17.12
2019-02-09T02:43:59.110Z,17.12
2019-02-09T02:44:59.980Z,17.12
2019-02-09T02:45:59.156Z,17.12
2019-02-09T02:47:00.893Z,17.12
2019-02-09T02:47:59.184Z,17.12
2019-02-09T02:48:59.056Z,17.11
2019-02-09T02:49:59.387Z,17.1
2019-02-09T02:50:59.482Z,17.1
2019-02-09T02:51:59.138Z,17.1
2019-02-09T02:52:59.372Z,17.1
2019-02-09T02:53:59.653Z,17.1
2019-02-09T02:54:59.715Z,17.1
2019-02-09T02:55:59.055Z,17.1
2019-02-09T02:57:00.017Z,17.1
2019-02-09T02:57:59.355Z,17.09
2019-02-09T02:59:00.119Z,17.1
2019-02-09T02:59:59.431Z,17.09
2019-02-09T03:01:00.075Z,17.1
2019-02-09T03:01:59.437Z,17.09
2019-02-09T03:02:59.134Z,17.08
2019-02-09T03:03:59.181Z,17.07
2019-02-09T03:04:59.334Z,17.07
2019-02-09T03:05:59.177Z,17.08
2019-02-09T03:06:59.122Z,17.07
2019-02-09T03:07:59.787Z,17.06
2019-02-09T03:08:59.330Z,17.06
2019-02-09T03:09:59.798Z,17.05
2019-02-09T03:10:59.349Z,17.05
2019-02-09T03:11:59.163Z,17.05
2019-02-09T03:12:59.439Z,17.04
2019-02-09T03:13:59.860Z,17.04
2019-02-09T03:14:59.194Z,17.04
2019-02-09T03:15:59.780Z,17.04
2019-02-09T03:16:59.173Z,17.04
2019-02-09T03:17:59.877Z,17.04
2019-02-09T03:18:59.191Z,17.02
2019-02-09T03:19:59.386Z,17.03
2019-02-09T03:21:00.060Z,17.02
2019-02-09T03:21:59.483Z,17.03
2019-02-09T03:22:59.599Z,17.03
2019-02-09T03:24:00.953Z,17.01
2019-02-09T03:24:59.300Z,17.03
2019-02-09T03:25:59.084Z,17.02
2019-02-09T03:26:59.939Z,17.01
2019-02-09T03:28:00.654Z,17
2019-02-09T03:28:59.863Z,17.01
2019-02-09T03:29:59.226Z,17.01
2019-02-09T03:30:59.255Z,17
2019-02-09T03:31:59.832Z,16.99
2019-02-09T03:33:00.183Z,17
2019-02-09T03:33:59.558Z,16.99
2019-02-09T03:35:00.636Z,16.99
2019-02-09T03:36:01.045Z,16.98
2019-02-09T03:36:58.944Z,16.98
2019-02-09T03:37:59.092Z,16.98
2019-02-09T03:38:59.547Z,16.98
2019-02-09T03:39:59.407Z,16.98
2019-02-09T03:40:59.402Z,16.98
2019-02-09T03:41:59.832Z,16.98
2019-02-09T03:42:59.020Z,16.98
2019-02-09T03:43:59.418Z,16.98
2019-02-09T03:44:59.343Z,16.98
2019-02-09T03:45:59.433Z,16.98
2019-02-09T03:46:59.663Z,16.96
2019-02-09T03:47:59.426Z,16.97
2019-02-09T03:48:59.154Z,16.97
2019-02-09T03:49:59.981Z,16.96
2019-02-09T03:50:59.214Z,16.96
2019-02-09T03:51:59.268Z,16.96
2019-02-09T03:52:59.243Z,16.96
2019-02-09T03:53:59.289Z,16.95
2019-02-09T03:54:59.243Z,16.94
2019-02-09T03:55:59.071Z,16.95
2019-02-09T03:56:59.390Z,16.94
2019-02-09T03:57:59.344Z,16.93
2019-02-09T03:58:59.504Z,16.93
2019-02-09T03:59:59.217Z,16.93
2019-02-09T04:00:59.056Z,16.92
2019-02-09T04:01:59.267Z,16.92
2019-02-09T04:02:59.403Z,16.92
2019-02-09T04:03:59.476Z,16.93
2019-02-09T04:04:59.299Z,16.92
2019-02-09T04:05:59.418Z,16.92
2019-02-09T04:06:59.444Z,16.92
2019-02-09T04:07:59.199Z,16.92
2019-02-09T04:08:59.318Z,16.92
2019-02-09T04:09:59.313Z,16.91
2019-02-09T04:10:59.165Z,16.9
2019-02-09T04:11:59.710Z,16.9
2019-02-09T04:12:59.330Z,16.89
2019-02-09T04:14:00.973Z,16.89
2019-02-09T04:14:59.211Z,16.89
2019-02-09T04:15:59.053Z,16.89
2019-02-09T04:17:01.003Z,16.88
2019-02-09T04:17:59.507Z,16.88
2019-02-09T04:18:59.323Z,16.89
2019-02-09T04:19:59.361Z,16.89
2019-02-09T04:20:59.595Z,16.88
2019-02-09T04:21:59.134Z,16.88
2019-02-09T04:23:00.979Z,16.87
2019-02-09T04:23:59.944Z,16.87
2019-02-09T04:24:58.962Z,16.87
2019-02-09T04:25:59.820Z,16.87
2019-02-09T04:26:59.332Z,16.87
2019-02-09T04:27:59.382Z,16.86
2019-02-09T04:28:59.139Z,16.86
2019-02-09T04:29:59.715Z,16.86
2019-02-09T04:31:07.321Z,16.85
2019-02-09T04:31:59.582Z,16.85
2019-02-09T04:33:00.414Z,16.85
2019-02-09T04:33:59.169Z,16.86
2019-02-09T04:34:59.361Z,16.85
2019-02-09T04:35:59.288Z,16.85
2019-02-09T04:36:59.217Z,16.85
2019-02-09T04:37:59.363Z,16.85
2019-02-09T04:38:59.132Z,16.85
2019-02-09T04:39:59.123Z,16.86
2019-02-09T04:40:58.962Z,16.85
2019-02-09T04:41:59.838Z,16.85
2019-02-09T04:42:59.171Z,16.85
2019-02-09T04:43:59.295Z,16.85
2019-02-09T04:44:59.531Z,16.85
2019-02-09T04:45:59.468Z,16.85
2019-02-09T04:46:59.066Z,16.86
2019-02-09T04:47:59.161Z,16.87
2019-02-09T04:48:59.415Z,16.88
2019-02-09T04:49:59.605Z,16.88
2019-02-09T04:50:58.991Z,16.88
2019-02-09T04:52:00.095Z,16.89
2019-02-09T04:53:00.043Z,16.9
2019-02-09T04:53:59.419Z,16.92
2019-02-09T04:54:58.991Z,16.92
2019-02-09T04:55:59.524Z,16.93
2019-02-09T04:56:59.472Z,16.94
2019-02-09T04:57:59.664Z,16.95
2019-02-09T04:58:59.377Z,16.95
2019-02-09T04:59:59.484Z,16.96
2019-02-09T05:00:59.100Z,16.97
2019-02-09T05:01:59.171Z,16.97
2019-02-09T05:02:59.414Z,16.99
2019-02-09T05:03:59.766Z,17.01
2019-02-09T05:04:59.349Z,17.02
2019-02-09T05:05:59.245Z,17.04
2019-02-09T05:07:01.077Z,17.04
2019-02-09T05:07:59.797Z,17.06
2019-02-09T05:08:59.443Z,17.08
2019-02-09T05:09:59.364Z,17.09
2019-02-09T05:10:59.410Z,17.1
2019-02-09T05:11:59.327Z,17.11
2019-02-09T05:12:59.030Z,17.13
2019-02-09T05:13:59.191Z,17.16
2019-02-09T05:14:59.274Z,17.17
2019-02-09T05:15:59.180Z,17.18
2019-02-09T05:16:59.987Z,17.2
2019-02-09T05:17:59.507Z,17.23
2019-02-09T05:18:59.583Z,17.23
2019-02-09T05:19:59.002Z,17.25
2019-02-09T05:20:59.490Z,17.27
2019-02-09T05:21:59.028Z,17.29
2019-02-09T05:22:59.312Z,17.3
2019-02-09T05:23:59.075Z,17.32
2019-02-09T05:25:01.036Z,17.34
2019-02-09T05:25:59.034Z,17.35
2019-02-09T05:27:00.113Z,17.36
2019-02-09T05:27:58.984Z,17.38
2019-02-09T05:28:59.277Z,17.4
2019-02-09T05:29:59.632Z,17.42
2019-02-09T05:30:59.342Z,17.43
2019-02-09T05:31:59.939Z,17.44
2019-02-09T05:33:01.481Z,17.45
2019-02-09T05:33:59.024Z,17.47
2019-02-09T05:34:59.293Z,17.48
2019-02-09T05:35:59.343Z,17.49
2019-02-09T05:36:59.173Z,17.51
2019-02-09T05:37:59.148Z,17.52
2019-02-09T05:38:59.247Z,17.53
2019-02-09T05:39:59.332Z,17.54
2019-02-09T05:40:58.948Z,17.56
2019-02-09T05:41:59.012Z,17.57
2019-02-09T05:42:59.226Z,17.6
2019-02-09T05:43:59.054Z,17.61
2019-02-09T05:44:59.158Z,17.61
2019-02-09T05:45:59.604Z,17.62
2019-02-09T05:46:59.119Z,17.64
2019-02-09T05:47:59.262Z,17.65
2019-02-09T05:48:59.523Z,17.67
2019-02-09T05:49:59.122Z,17.67
2019-02-09T05:51:00.882Z,17.68
2019-02-09T05:51:59.075Z,17.69
2019-02-09T05:52:59.873Z,17.7
2019-02-09T05:53:59.382Z,17.71
2019-02-09T05:54:59.212Z,17.73
2019-02-09T05:55:59.053Z,17.73
2019-02-09T05:56:59.038Z,17.75
2019-02-09T05:57:59.987Z,17.76
2019-02-09T05:58:59.892Z,17.77
2019-02-09T05:59:59.091Z,17.78
2019-02-09T06:00:59.481Z,17.79
2019-02-09T06:01:59.655Z,17.8
2019-02-09T06:03:00.454Z,17.8
2019-02-09T06:03:59.247Z,17.81
2019-02-09T06:04:59.670Z,17.83
2019-02-09T06:05:59.469Z,17.84
2019-02-09T06:06:59.814Z,17.85
2019-02-09T06:08:00.228Z,17.86
2019-02-09T06:08:59.293Z,17.86
2019-02-09T06:09:59.549Z,17.87
2019-02-09T06:10:59.802Z,17.88
2019-02-09T06:11:59.326Z,17.89
2019-02-09T06:12:59.105Z,17.9
2019-02-09T06:13:59.165Z,17.91
2019-02-09T06:14:59.324Z,17.92
2019-02-09T06:15:59.078Z,17.93
2019-02-09T06:16:59.118Z,17.94
2019-02-09T06:17:58.961Z,17.95
2019-02-09T06:18:59.133Z,17.97
2019-02-09T06:20:00.491Z,17.97
2019-02-09T06:20:59.176Z,17.98
2019-02-09T06:21:59.725Z,17.98
2019-02-09T06:22:59.031Z,17.99
2019-02-09T06:23:59.438Z,18
2019-02-09T06:24:59.792Z,18.01
2019-02-09T06:25:58.940Z,18.02
2019-02-09T06:27:00.070Z,18.03
2019-02-09T06:27:59.296Z,18.04
2019-02-09T06:28:58.899Z,18.04
2019-02-09T06:29:58.993Z,18.05
2019-02-09T06:30:59.503Z,18.06
2019-02-09T06:31:59.304Z,18.07
2019-02-09T06:32:59.436Z,18.08
2019-02-09T06:33:59.059Z,18.1
2019-02-09T06:34:58.881Z,18.1
2019-02-09T06:35:59.083Z,18.1
2019-02-09T06:36:59.460Z,18.1
2019-02-09T06:37:59.931Z,18.12
2019-02-09T06:38:59.430Z,18.13
2019-02-09T06:39:58.990Z,18.13
2019-02-09T06:40:58.960Z,18.14
2019-02-09T06:41:59.623Z,18.15
2019-02-09T06:42:59.042Z,18.16
2019-02-09T06:43:59.254Z,18.17
2019-02-09T06:44:59.719Z,18.17
2019-02-09T06:45:59.303Z,18.17
2019-02-09T06:46:59.631Z,18.18
2019-02-09T06:47:59.131Z,18.19
2019-02-09T06:48:59.441Z,18.2
2019-02-09T06:49:58.962Z,18.21
2019-02-09T06:50:59.558Z,18.22
2019-02-09T06:51:59.329Z,18.23
2019-02-09T06:52:59.137Z,18.23
2019-02-09T06:53:59.382Z,18.23
2019-02-09T06:54:59.517Z,18.24
2019-02-09T06:56:00.976Z,18.26
2019-02-09T06:56:58.873Z,18.26
2019-02-09T06:57:59.070Z,18.27
2019-02-09T06:59:00.023Z,18.27
2019-02-09T06:59:59.332Z,18.28
2019-02-09T07:00:59.119Z,18.29
2019-02-09T07:01:59.104Z,18.31
2019-02-09T07:02:59.121Z,18.31
2019-02-09T07:03:59.977Z,18.32
2019-02-09T07:04:59.171Z,18.33
2019-02-09T07:05:59.065Z,18.35
2019-02-09T07:06:59.134Z,18.35
2019-02-09T07:07:58.916Z,18.37
2019-02-09T07:08:59.059Z,18.37
2019-02-09T07:09:59.204Z,18.38
2019-02-09T07:10:59.209Z,18.39
2019-02-09T07:11:59.327Z,18.41
2019-02-09T07:12:58.962Z,18.4
2019-02-09T07:13:59.206Z,18.41
2019-02-09T07:14:59.086Z,18.42
2019-02-09T07:15:59.205Z,18.43
2019-02-09T07:16:59.116Z,18.44
2019-02-09T07:17:59.122Z,18.45
2019-02-09T07:18:59.252Z,18.46
2019-02-09T07:19:59.357Z,18.48
2019-02-09T07:20:58.835Z,18.48
2019-02-09T07:21:59.712Z,18.48
2019-02-09T07:22:59.271Z,18.5
2019-02-09T07:23:59.076Z,18.51
2019-02-09T07:24:59.634Z,18.52
2019-02-09T07:25:59.205Z,18.53
2019-02-09T07:26:59.019Z,18.52
2019-02-09T07:27:59.114Z,18.54
2019-02-09T07:28:58.983Z,18.54
2019-02-09T07:29:59.030Z,18.55
2019-02-09T07:30:59.410Z,18.56
2019-02-09T07:31:59.223Z,18.56
2019-02-09T07:32:59.000Z,18.58
2019-02-09T07:33:59.264Z,18.6
2019-02-09T07:34:59.451Z,18.59
2019-02-09T07:35:59.215Z,18.6
2019-02-09T07:36:59.317Z,18.6
2019-02-09T07:37:58.786Z,18.62
2019-02-09T07:38:59.058Z,18.61
2019-02-09T07:39:58.939Z,18.63
2019-02-09T07:40:58.969Z,18.64
2019-02-09T07:41:59.702Z,18.64
2019-02-09T07:43:00.370Z,18.65
2019-02-09T07:43:59.105Z,18.66
2019-02-09T07:44:59.319Z,18.66
2019-02-09T07:45:59.155Z,18.66
2019-02-09T07:46:59.267Z,18.66
2019-02-09T07:47:59.472Z,18.67
2019-02-09T07:48:58.971Z,18.68
2019-02-09T07:49:59.609Z,18.69
2019-02-09T07:50:58.976Z,18.66
2019-02-09T07:51:59.464Z,18.66
2019-02-09T07:52:59.300Z,18.67
2019-02-09T07:53:59.377Z,18.67
2019-02-09T07:54:59.615Z,18.66
2019-02-09T07:56:00.024Z,18.66
2019-02-09T07:56:59.148Z,18.66
2019-02-09T07:57:59.005Z,18.66
2019-02-09T07:58:59.122Z,18.66
2019-02-09T07:59:59.207Z,18.66
2019-02-09T08:00:59.115Z,18.65
2019-02-09T08:02:05.109Z,18.65
2019-02-09T08:02:59.033Z,18.65
2019-02-09T08:03:59.031Z,18.65
2019-02-09T08:04:58.959Z,18.64
2019-02-09T08:05:58.984Z,18.64
2019-02-09T08:06:59.571Z,18.65
2019-02-09T08:08:00.939Z,18.64
2019-02-09T08:08:59.440Z,18.64
2019-02-09T08:09:59.715Z,18.65
2019-02-09T08:10:59.284Z,18.65
2019-02-09T08:11:59.253Z,18.65
2019-02-09T08:12:59.841Z,18.65
2019-02-09T08:13:59.050Z,18.66
2019-02-09T08:14:59.031Z,18.66
2019-02-09T08:15:59.429Z,18.66
2019-02-09T08:16:59.102Z,18.66
2019-02-09T08:17:59.655Z,18.65
2019-02-09T08:18:59.435Z,18.66
2019-02-09T08:19:59.120Z,18.66
2019-02-09T08:20:59.650Z,18.66
2019-02-09T08:21:59.021Z,18.66
2019-02-09T08:22:59.261Z,18.66
2019-02-09T08:23:59.380Z,18.66
2019-02-09T08:24:59.291Z,18.67
2019-02-09T08:25:59.145Z,18.66
2019-02-09T08:26:59.826Z,18.67
2019-02-09T08:27:59.449Z,18.66
2019-02-09T08:28:59.752Z,18.66
2019-02-09T08:29:59.154Z,18.66
2019-02-09T08:31:00.086Z,18.67
2019-02-09T08:31:59.557Z,18.67
2019-02-09T08:32:58.962Z,18.67
2019-02-09T08:33:59.887Z,18.68
2019-02-09T08:34:59.972Z,18.68
2019-02-09T08:35:58.940Z,18.68
2019-02-09T08:36:59.371Z,18.68
2019-02-09T08:37:59.532Z,18.68
2019-02-09T08:38:59.192Z,18.68
2019-02-09T08:39:59.117Z,18.69
2019-02-09T08:41:01.937Z,18.69
2019-02-09T08:42:01.744Z,18.7
2019-02-09T08:43:01.340Z,18.7
2019-02-09T08:44:00.934Z,18.7
2019-02-09T08:45:01.669Z,18.7
2019-02-09T08:45:59.431Z,18.71
2019-02-09T08:46:59.143Z,18.72
2019-02-09T08:47:59.515Z,18.72
2019-02-09T08:49:07.298Z,18.72
2019-02-09T08:49:59.255Z,18.72
2019-02-09T08:50:59.032Z,18.72
2019-02-09T08:51:59.488Z,18.72
2019-02-09T08:52:58.904Z,18.72
2019-02-09T08:53:59.112Z,18.73
2019-02-09T08:54:58.906Z,18.73
2019-02-09T08:55:59.217Z,18.73
2019-02-09T08:56:58.823Z,18.74
2019-02-09T08:57:59.248Z,18.74
2019-02-09T08:58:59.110Z,18.73
2019-02-09T08:59:58.879Z,18.74
2019-02-09T09:00:59.153Z,18.74
2019-02-09T09:01:59.257Z,18.75
2019-02-09T09:02:58.872Z,18.74
2019-02-09T09:03:59.490Z,18.74
2019-02-09T09:04:59.118Z,18.75
2019-02-09T09:05:59.019Z,18.76
2019-02-09T09:06:59.184Z,18.76
2019-02-09T09:07:58.752Z,18.77
2019-02-09T09:09:00.788Z,18.77
2019-02-09T09:09:58.993Z,18.77
2019-02-09T09:10:59.050Z,18.77
2019-02-09T09:11:59.401Z,18.77
2019-02-09T09:12:59.066Z,18.78
2019-02-09T09:14:00.832Z,18.77
2019-02-09T09:14:59.714Z,18.77
2019-02-09T09:15:58.777Z,18.77
2019-02-09T09:16:58.878Z,18.78
2019-02-09T09:17:59.369Z,18.78
2019-02-09T09:18:59.160Z,18.79
2019-02-09T09:19:58.900Z,18.78
2019-02-09T09:20:59.423Z,18.78
2019-02-09T09:21:59.188Z,18.79
2019-02-09T09:22:59.400Z,18.79
2019-02-09T09:23:59.063Z,18.8
2019-02-09T09:24:59.800Z,18.81
2019-02-09T09:25:59.238Z,18.81
2019-02-09T09:27:00.349Z,18.81
2019-02-09T09:27:59.367Z,18.81
2019-02-09T09:28:59.234Z,18.82
2019-02-09T09:29:59.161Z,18.82
2019-02-09T09:30:59.213Z,18.82
2019-02-09T09:31:59.412Z,18.82
2019-02-09T09:32:59.296Z,18.82
2019-02-09T09:33:59.282Z,18.83
2019-02-09T09:35:00.369Z,18.83
2019-02-09T09:36:05.425Z,18.84
2019-02-09T09:36:59.140Z,18.84
2019-02-09T09:37:59.825Z,18.84
2019-02-09T09:38:58.926Z,18.84
2019-02-09T09:39:58.903Z,18.84
2019-02-09T09:40:59.474Z,18.84
2019-02-09T09:41:59.046Z,18.84
2019-02-09T09:42:59.057Z,18.84
2019-02-09T09:43:59.451Z,18.84
2019-02-09T09:44:59.364Z,18.85
2019-02-09T09:45:59.492Z,18.85
2019-02-09T09:47:00.774Z,18.84
2019-02-09T09:47:59.296Z,18.87
2019-02-09T09:49:00.912Z,18.86
2019-02-09T09:49:59.596Z,18.85
2019-02-09T09:51:00.222Z,18.86
2019-02-09T09:51:59.110Z,18.87
2019-02-09T09:52:58.769Z,18.88
2019-02-09T09:54:00.364Z,18.88
2019-02-09T09:54:58.894Z,18.9
2019-02-09T09:55:58.954Z,18.9
2019-02-09T09:57:00.702Z,18.91
2019-02-09T09:57:58.902Z,18.92
2019-02-09T09:59:00.815Z,18.93
2019-02-09T09:59:59.008Z,18.94
2019-02-09T10:00:59.387Z,18.95
2019-02-09T10:01:59.302Z,18.96
2019-02-09T10:02:59.312Z,18.97
2019-02-09T10:03:59.285Z,18.98
2019-02-09T10:04:59.306Z,19
2019-02-09T10:05:58.902Z,19
2019-02-09T10:06:58.928Z,19.01
2019-02-09T10:07:59.721Z,19.03
2019-02-09T10:08:59.207Z,19.03
2019-02-09T10:09:59.346Z,19.04
2019-02-09T10:11:00.890Z,19.05
2019-02-09T10:12:00.729Z,19.06
2019-02-09T10:12:58.996Z,19.07
2019-02-09T10:13:59.881Z,19.07
2019-02-09T10:14:58.768Z,19.08
2019-02-09T10:15:59.107Z,19.12
2019-02-09T10:16:59.797Z,19.15
2019-02-09T10:17:59.073Z,19.16
2019-02-09T10:18:58.940Z,19.21
2019-02-09T10:19:59.226Z,19.23
2019-02-09T10:20:59.063Z,19.27
2019-02-09T10:22:00.804Z,19.29
2019-02-09T10:22:58.902Z,19.3
2019-02-09T10:23:59.019Z,19.31
2019-02-09T10:24:59.176Z,19.35
2019-02-09T10:25:59.178Z,19.36
2019-02-09T10:26:59.461Z,19.39
2019-02-09T10:27:58.740Z,19.4
2019-02-09T10:28:59.597Z,19.4
2019-02-09T10:29:59.176Z,19.4
2019-02-09T10:30:59.277Z,19.41
2019-02-09T10:31:58.894Z,19.45
2019-02-09T10:33:00.651Z,19.47
2019-02-09T10:33:59.243Z,19.5
2019-02-09T10:34:59.077Z,19.53
2019-02-09T10:35:58.888Z,19.52
2019-02-09T10:36:59.036Z,19.52
2019-02-09T10:37:58.971Z,19.51
2019-02-09T10:38:58.930Z,19.53
2019-02-09T10:39:59.233Z,19.54
2019-02-09T10:40:59.076Z,19.54
2019-02-09T10:41:58.926Z,19.56
2019-02-09T10:42:59.131Z,19.55
2019-02-09T10:43:59.285Z,19.57
2019-02-09T10:44:59.426Z,19.57
2019-02-09T10:45:59.284Z,19.57
2019-02-09T10:46:58.979Z,19.57
2019-02-09T10:47:59.468Z,19.57
2019-02-09T10:48:59.309Z,19.58
2019-02-09T10:49:58.992Z,19.59
2019-02-09T10:50:58.882Z,19.6
2019-02-09T10:51:59.333Z,19.6
2019-02-09T10:52:59.719Z,19.6
2019-02-09T10:53:58.801Z,19.62
2019-02-09T10:54:59.455Z,19.62
2019-02-09T10:55:59.161Z,19.62
2019-02-09T10:56:59.267Z,19.63
2019-02-09T10:58:00.941Z,19.63
2019-02-09T10:58:59.630Z,19.64
2019-02-09T10:59:58.969Z,19.66
2019-02-09T11:00:59.531Z,19.67
2019-02-09T11:02:00.785Z,19.73
2019-02-09T11:02:58.961Z,19.71
2019-02-09T11:03:59.428Z,19.74
2019-02-09T11:04:58.853Z,19.75
2019-02-09T11:05:58.893Z,19.76
2019-02-09T11:06:59.882Z,19.77
2019-02-09T11:07:59.015Z,19.77
2019-02-09T11:08:58.824Z,19.78
2019-02-09T11:09:58.868Z,19.77
2019-02-09T11:10:59.105Z,19.81
2019-02-09T11:11:59.060Z,19.81
2019-02-09T11:12:59.385Z,19.81
2019-02-09T11:13:58.934Z,19.83
2019-02-09T11:14:59.726Z,19.87
2019-02-09T11:15:59.325Z,19.88
2019-02-09T11:16:59.107Z,19.88
2019-02-09T11:18:06.042Z,19.9
2019-02-09T11:18:59.119Z,19.91
2019-02-09T11:19:59.036Z,19.94
2019-02-09T11:20:58.839Z,19.95
2019-02-09T11:22:00.832Z,19.95
2019-02-09T11:22:59.431Z,19.94
2019-02-09T11:23:59.793Z,19.93
2019-02-09T11:24:58.731Z,19.97
2019-02-09T11:25:59.336Z,20
2019-02-09T11:27:00.776Z,20
2019-02-09T11:27:58.992Z,19.99
2019-02-09T11:28:58.832Z,20.02
2019-02-09T11:30:00.496Z,20.02
2019-02-09T11:31:01.072Z,20.01
2019-02-09T11:31:59.408Z,20
2019-02-09T11:33:02.904Z,20
2019-02-09T11:33:59.088Z,19.98
2019-02-09T11:34:58.950Z,20
2019-02-09T11:36:00.247Z,20.01
2019-02-09T11:36:58.871Z,20.04
2019-02-09T11:37:59.450Z,20.02
2019-02-09T11:38:58.829Z,20.03
2019-02-09T11:39:58.903Z,19.99
2019-02-09T11:40:59.576Z,19.96
2019-02-09T11:41:59.283Z,19.99
2019-02-09T11:42:59.513Z,19.96
2019-02-09T11:43:58.827Z,19.95
2019-02-09T11:45:00.771Z,19.94
2019-02-09T11:45:58.984Z,19.94
2019-02-09T11:46:59.836Z,19.92
2019-02-09T11:47:58.791Z,19.89
2019-02-09T11:48:59.199Z,19.88
2019-02-09T11:49:59.251Z,19.88
2019-02-09T11:50:59.855Z,19.87
2019-02-09T11:51:59.493Z,19.86
2019-02-09T11:52:58.884Z,19.85
2019-02-09T11:53:58.900Z,19.83
2019-02-09T11:54:59.159Z,19.84
2019-02-09T11:55:59.183Z,19.82
2019-02-09T11:56:59.512Z,19.81
2019-02-09T11:57:59.197Z,19.81
2019-02-09T11:58:58.864Z,19.81
2019-02-09T11:59:59.525Z,19.81
2019-02-09T12:00:58.841Z,19.8
2019-02-09T12:01:59.630Z,19.81
2019-02-09T12:03:16.598Z,19.79
2019-02-09T12:03:59.083Z,19.79
2019-02-09T12:04:58.964Z,19.79
2019-02-09T12:05:59.042Z,19.79
2019-02-09T12:06:59.217Z,19.79
2019-02-09T12:07:58.995Z,19.8
2019-02-09T12:08:58.768Z,19.78
2019-02-09T12:09:59.671Z,19.77
2019-02-09T12:10:59.186Z,19.78
2019-02-09T12:11:58.810Z,19.77
2019-02-09T12:12:59.218Z,19.78
2019-02-09T12:13:59.095Z,19.78
2019-02-09T12:14:59.096Z,19.76
2019-02-09T12:15:59.064Z,19.76
2019-02-09T12:16:58.906Z,19.77
2019-02-09T12:17:59.076Z,19.78
2019-02-09T12:18:58.888Z,19.79
2019-02-09T12:19:59.029Z,19.78
2019-02-09T12:20:58.869Z,19.78
2019-02-09T12:21:59.064Z,19.8
2019-02-09T12:22:58.999Z,19.8
2019-02-09T12:23:58.991Z,19.8
2019-02-09T12:24:58.871Z,19.8
2019-02-09T12:25:58.746Z,19.78
2019-02-09T12:26:58.728Z,19.79
2019-02-09T12:27:59.137Z,19.79
2019-02-09T12:28:59.226Z,19.79
2019-02-09T12:29:59.171Z,19.8
2019-02-09T12:30:59.018Z,19.79
2019-02-09T12:31:59.556Z,19.79
2019-02-09T12:32:58.850Z,19.8
2019-02-09T12:34:00.646Z,19.8
2019-02-09T12:34:59.057Z,19.79
2019-02-09T12:35:59.170Z,19.8
2019-02-09T12:36:59.274Z,19.79
2019-02-09T12:37:59.383Z,19.8
2019-02-09T12:38:58.781Z,19.8
2019-02-09T12:39:59.391Z,19.78
2019-02-09T12:40:58.980Z,19.79
2019-02-09T12:41:59.547Z,19.79
2019-02-09T12:43:00.825Z,19.79
2019-02-09T12:43:58.786Z,19.78
2019-02-09T12:45:00.406Z,19.78
2019-02-09T12:45:58.956Z,19.78
2019-02-09T12:46:58.762Z,19.79
2019-02-09T12:47:59.968Z,19.79
2019-02-09T12:48:59.165Z,19.76
2019-02-09T12:50:00.653Z,19.77
2019-02-09T12:50:58.924Z,19.77
2019-02-09T12:51:59.061Z,19.76
2019-02-09T12:52:58.868Z,19.76
2019-02-09T12:53:58.801Z,19.75
2019-02-09T12:54:59.294Z,19.75
2019-02-09T12:55:59.206Z,19.75
2019-02-09T12:56:58.727Z,19.75